Time;durP1;ratioP1;P1;durP2;ratioP2;P2;SDS_P1;SDS_P2;PMS_P1;PMS_P2;Temp;Humidity;BMP_temperature;BMP_pressure;BME280_temperature;BME280_humidity;BME280_pressure;Samples;Min_cycle;Max_cycle;Signal;HPM_P1;HPM_P2
2023/05/17 00:00:02;;;;;;;1.80;0.80;;;17.80;70.60;;;;;;4956065;28;21019;-68
2023/05/17 00:02:33;;;;;;;1.70;1.00;;;17.80;70.70;;;;;;4944955;28;21062;-67
2023/05/17 00:05:02;;;;;;;1.90;0.90;;;17.80;70.50;;;;;;4945736;28;20519;-68
2023/05/17 00:07:30;;;;;;;2.80;1.17;;;17.80;70.60;;;;;;4945563;28;20432;-67
2023/05/17 00:09:58;;;;;;;1.67;0.80;;;17.80;70.60;;;;;;4957958;28;20499;-67
2023/05/17 00:12:27;;;;;;;1.50;0.90;;;17.80;70.60;;;;;;4943117;28;20997;-69
2023/05/17 00:14:56;;;;;;;1.40;0.73;;;17.80;70.40;;;;;;4961599;28;20475;-68
2023/05/17 00:17:24;;;;;;;2.37;1.00;;;17.80;70.30;;;;;;4945797;28;20474;-67
2023/05/17 00:19:57;;;;;;;2.20;0.90;;;17.80;70.10;;;;;;4945260;28;20456;-67
2023/05/17 00:22:26;;;;;;;2.90;0.90;;;17.80;70.00;;;;;;4946087;29;20896;-67
2023/05/17 00:24:54;;;;;;;1.50;0.80;;;17.80;70.00;;;;;;4945376;28;20464;-68
2023/05/17 00:27:23;;;;;;;3.93;0.90;;;17.80;70.10;;;;;;4945999;28;20554;-66
2023/05/17 00:29:51;;;;;;;3.00;1.00;;;17.80;70.10;;;;;;4942790;28;21002;-68
2023/05/17 00:32:20;;;;;;;1.90;1.10;;;17.80;70.00;;;;;;4947463;29;20683;-67
2023/05/17 00:34:48;;;;;;;2.30;1.00;;;17.80;70.00;;;;;;4943951;28;20491;-66
2023/05/17 00:37:18;;;;;;;1.63;0.80;;;17.80;70.00;;;;;;4959634;28;20471;-68
2023/05/17 00:39:47;;;;;;;2.90;1.00;;;17.80;70.00;;;;;;4946328;28;21011;-67
2023/05/17 00:42:16;;;;;;;1.90;1.10;;;17.70;69.90;;;;;;4946539;29;20972;-67
2023/05/17 00:44:44;;;;;;;2.43;0.80;;;17.70;70.00;;;;;;4942870;28;20495;-67
2023/05/17 00:47:13;;;;;;;1.60;0.93;;;17.70;69.80;;;;;;4945399;29;20445;-69
2023/05/17 00:49:41;;;;;;;1.73;1.07;;;17.70;70.10;;;;;;4944843;28;20523;-68
2023/05/17 00:52:10;;;;;;;1.80;1.13;;;17.70;70.30;;;;;;4945843;28;20518;-67
2023/05/17 00:54:40;;;;;;;1.63;0.80;;;17.70;70.40;;;;;;4941605;29;20452;-66
2023/05/17 00:57:09;;;;;;;2.10;1.00;;;17.70;70.50;;;;;;4947634;28;20479;-67
2023/05/17 00:59:39;;;;;;;1.70;1.10;;;17.70;70.40;;;;;;4945336;28;21006;-67
2023/05/17 01:02:08;;;;;;;1.77;0.90;;;17.70;70.40;;;;;;4948494;29;20448;-66
2023/05/17 01:04:37;;;;;;;2.57;1.00;;;17.70;70.50;;;;;;4947167;28;20472;-67
2023/05/17 01:07:08;;;;;;;2.40;1.30;;;17.70;70.50;;;;;;4948402;28;20468;-68
2023/05/17 01:09:39;;;;;;;1.73;1.00;;;17.70;70.40;;;;;;4949420;28;20454;-68
2023/05/17 01:12:22;;;;;;;2.60;1.10;;;17.70;70.50;;;;;;4949430;28;20456;-68
2023/05/17 01:14:58;;;;;;;1.87;1.00;;;17.70;70.50;;;;;;4942819;29;20985;-67
2023/05/17 01:17:35;;;;;;;1.87;1.00;;;17.70;70.60;;;;;;4962877;28;20502;-67
2023/05/17 01:20:14;;;;;;;1.70;1.20;;;17.70;70.60;;;;;;4944435;28;20862;-68
2023/05/17 01:22:53;;;;;;;1.77;0.90;;;17.70;70.80;;;;;;4942124;28;20448;-67
2023/05/17 01:25:46;;;;;;;2.03;1.17;;;17.70;70.80;;;;;;4948937;28;20436;-69
2023/05/17 01:28:17;;;;;;;1.73;0.83;;;17.70;70.70;;;;;;4942567;28;20547;-68
2023/05/17 01:30:47;;;;;;;2.37;1.00;;;17.60;72.10;;;;;;4942055;28;20433;-68
2023/05/17 01:33:16;;;;;;;2.00;1.27;;;17.60;70.90;;;;;;4943502;29;20475;-67
2023/05/17 01:35:45;;;;;;;1.93;1.03;;;17.60;71.00;;;;;;4946002;28;20483;-67
2023/05/17 01:38:32;;;;;;;3.33;2.23;;;17.60;72.10;;;;;;4947305;28;20841;-67
2023/05/17 01:41:27;;;;;;;2.33;1.00;;;17.60;70.90;;;;;;4949577;29;20503;-69
2023/05/17 01:44:24;;;;;;;2.00;1.17;;;17.60;70.70;;;;;;4946512;28;20570;-68
2023/05/17 01:47:18;;;;;;;1.80;1.03;;;17.60;70.70;;;;;;4950219;29;20424;-67
2023/05/17 01:50:08;;;;;;;2.40;1.00;;;17.60;70.60;;;;;;4945983;28;20652;-67
2023/05/17 01:52:43;;;;;;;2.30;1.00;;;17.60;70.70;;;;;;4947138;28;21029;-67
2023/05/17 01:55:24;;;;;;;1.90;0.90;;;17.60;70.60;;;;;;4948294;28;20514;-67
2023/05/17 01:57:55;;;;;;;1.63;1.00;;;17.60;70.80;;;;;;4938625;29;20459;-66
2023/05/17 02:00:27;;;;;;;2.50;1.03;;;17.60;70.70;;;;;;4946904;29;20984;-68
2023/05/17 02:02:57;;;;;;;1.90;0.80;;;17.60;70.60;;;;;;4950596;28;20459;-68
2023/05/17 02:05:26;;;;;;;2.77;1.00;;;17.60;70.70;;;;;;4949634;28;20964;-68
2023/05/17 02:07:55;;;;;;;4.97;1.30;;;17.60;70.60;;;;;;4935145;29;20456;-67
2023/05/17 02:10:23;;;;;;;1.90;0.93;;;17.60;70.70;;;;;;4952097;29;20525;-68
2023/05/17 02:12:52;;;;;;;2.97;0.90;;;17.60;70.50;;;;;;4950853;29;21064;-66
2023/05/17 02:15:20;;;;;;;2.27;1.20;;;17.60;70.70;;;;;;4944992;29;20533;-66
2023/05/17 02:17:50;;;;;;;3.10;1.13;;;17.60;70.80;;;;;;4946740;29;21029;-68
2023/05/17 02:20:19;;;;;;;2.27;1.00;;;17.60;70.60;;;;;;4945002;29;20459;-66
2023/05/17 02:22:48;;;;;;;1.77;1.00;;;17.50;70.50;;;;;;4930538;29;21011;-67
2023/05/17 02:25:16;;;;;;;1.93;0.97;;;17.50;70.60;;;;;;4948166;29;20447;-67
2023/05/17 02:27:45;;;;;;;1.70;0.90;;;17.50;70.60;;;;;;4949201;29;20452;-68
2023/05/17 02:30:15;;;;;;;2.53;0.93;;;17.50;71.80;;;;;;4951395;29;20520;-68
2023/05/17 02:32:45;;;;;;;3.03;1.10;;;17.50;70.60;;;;;;4942756;28;20480;-66
2023/05/17 02:35:15;;;;;;;1.60;0.80;;;17.50;70.70;;;;;;4942209;29;20456;-66
2023/05/17 02:37:44;;;;;;;1.87;1.10;;;17.50;70.60;;;;;;4958967;28;20543;-66
2023/05/17 02:40:13;;;;;;;2.10;1.10;;;17.50;70.60;;;;;;4949710;28;20445;-66
2023/05/17 02:42:42;;;;;;;1.80;0.90;;;17.50;70.60;;;;;;4942482;28;20472;-67
2023/05/17 02:45:11;;;;;;;1.67;1.10;;;17.50;70.60;;;;;;4947502;29;20623;-67
2023/05/17 02:47:39;;;;;;;2.43;0.87;;;17.40;70.60;;;;;;4952011;28;20847;-67
2023/05/17 02:50:09;;;;;;;3.10;1.17;;;17.50;70.70;;;;;;4946354;29;20554;-66
2023/05/17 02:52:39;;;;;;;2.73;1.43;;;17.40;70.50;;;;;;4949558;29;20456;-67
2023/05/17 02:55:09;;;;;;;2.90;1.17;;;17.40;70.40;;;;;;4951044;29;21001;-66
2023/05/17 02:57:37;;;;;;;2.27;0.90;;;17.40;70.50;;;;;;4942981;28;20491;-66
2023/05/17 03:00:07;;;;;;;2.83;1.10;;;17.40;70.50;;;;;;4962592;28;21003;-68
2023/05/17 03:02:36;;;;;;;2.63;1.07;;;17.40;70.50;;;;;;4946965;28;20507;-68
2023/05/17 03:05:08;;;;;;;1.40;0.80;;;17.40;70.60;;;;;;4945451;29;20448;-67
2023/05/17 03:07:41;;;;;;;1.50;0.80;;;17.40;70.60;;;;;;4943183;28;20452;-68
2023/05/17 03:10:10;;;;;;;1.50;0.90;;;17.40;70.70;;;;;;4947528;29;20428;-66
2023/05/17 03:12:43;;;;;;;1.60;0.80;;;17.40;70.80;;;;;;4940620;28;21040;-68
2023/05/17 03:15:13;;;;;;;2.40;1.10;;;17.40;70.80;;;;;;4945389;28;20539;-67
2023/05/17 03:17:41;;;;;;;2.30;1.30;;;17.40;70.70;;;;;;4946875;28;20834;-67
2023/05/17 03:20:11;;;;;;;2.00;1.17;;;17.40;70.90;;;;;;4943741;28;20515;-68
2023/05/17 03:22:41;;;;;;;2.20;1.13;;;17.40;70.80;;;;;;4945966;28;20475;-68
2023/05/17 03:25:09;;;;;;;3.10;1.10;;;17.40;70.90;;;;;;4948009;28;20444;-67
2023/05/17 03:27:38;;;;;;;2.60;0.90;;;17.40;70.90;;;;;;4947078;29;20456;-67
2023/05/17 03:30:08;;;;;;;2.63;1.53;;;17.40;70.90;;;;;;4960659;28;20456;-67
2023/05/17 03:32:38;;;;;;;1.50;1.10;;;17.40;70.80;;;;;;4946323;28;20813;-68
2023/05/17 03:35:08;;;;;;;2.37;1.33;;;17.30;70.80;;;;;;4943091;29;20464;-68
2023/05/17 03:37:41;;;;;;;1.60;1.00;;;17.30;70.80;;;;;;4946672;28;20487;-66
2023/05/17 03:40:11;;;;;;;2.00;1.00;;;17.30;70.90;;;;;;4947127;29;20527;-68
2023/05/17 03:42:40;;;;;;;1.97;1.10;;;17.30;70.90;;;;;;4944998;28;20562;-67
2023/05/17 03:45:09;;;;;;;3.37;0.80;;;17.30;70.90;;;;;;4947983;28;20448;-67
2023/05/17 03:47:37;;;;;;;2.27;1.30;;;17.30;71.00;;;;;;4945036;28;20454;-67
2023/05/17 03:50:07;;;;;;;3.40;1.17;;;17.30;70.90;;;;;;4942313;28;20515;-67
2023/05/17 03:52:36;;;;;;;2.63;0.87;;;17.30;71.00;;;;;;4944572;28;20566;-68
2023/05/17 03:55:07;;;;;;;1.97;1.00;;;17.30;71.00;;;;;;4946234;28;20454;-66
2023/05/17 03:57:35;;;;;;;2.43;1.40;;;17.30;71.30;;;;;;4945605;28;20490;-67
2023/05/17 04:00:08;;;;;;;2.20;1.17;;;17.30;71.30;;;;;;4946067;29;20444;-67
2023/05/17 04:02:41;;;;;;;2.37;1.00;;;17.30;71.10;;;;;;4938470;28;20483;-66
2023/05/17 04:05:12;;;;;;;3.20;1.30;;;17.30;71.10;;;;;;4945340;28;20444;-65
2023/05/17 04:07:43;;;;;;;2.47;1.27;;;17.30;71.20;;;;;;4937687;28;20829;-66
2023/05/17 04:10:16;;;;;;;1.87;1.43;;;17.30;71.00;;;;;;4945555;28;20436;-68
2023/05/17 04:12:46;;;;;;;1.90;1.10;;;17.20;71.10;;;;;;4937445;28;20869;-67
2023/05/17 04:15:15;;;;;;;3.67;1.13;;;17.20;71.20;;;;;;4946699;29;20448;-67
2023/05/17 04:17:44;;;;;;;2.60;1.17;;;17.20;71.20;;;;;;4939757;28;20815;-66
2023/05/17 04:20:13;;;;;;;3.73;1.10;;;17.20;71.20;;;;;;4943906;28;20498;-68
2023/05/17 04:22:42;;;;;;;4.53;1.80;;;17.20;71.10;;;;;;4950920;28;20441;-65
2023/05/17 04:25:12;;;;;;;2.03;1.30;;;17.20;71.20;;;;;;4941514;28;20812;-67
2023/05/17 04:27:42;;;;;;;2.00;1.23;;;17.20;71.40;;;;;;4945456;28;20471;-66
2023/05/17 04:30:11;;;;;;;2.63;1.60;;;17.20;71.20;;;;;;4946947;28;20795;-67
2023/05/17 04:32:41;;;;;;;2.63;1.50;;;17.20;71.40;;;;;;4942863;28;20477;-68
2023/05/17 04:35:11;;;;;;;2.27;0.93;;;17.20;71.50;;;;;;4903730;28;1120272;-68
2023/05/17 04:37:42;;;;;;;2.17;1.20;;;17.20;71.50;;;;;;4943141;28;20220;-66
2023/05/17 04:40:20;;;;;;;4.33;1.50;;;17.20;71.50;;;;;;4950009;28;20454;-68
2023/05/17 04:42:50;;;;;;;2.30;1.30;;;17.20;71.40;;;;;;4949071;28;20490;-67
2023/05/17 04:45:20;;;;;;;2.40;1.10;;;17.20;71.40;;;;;;4948532;29;20452;-66
2023/05/17 04:47:51;;;;;;;1.90;1.23;;;17.10;71.30;;;;;;4950097;28;20444;-66
2023/05/17 04:50:20;;;;;;;2.47;1.50;;;17.10;71.50;;;;;;4946131;28;20530;-66
2023/05/17 04:52:48;;;;;;;2.47;1.40;;;17.20;71.50;;;;;;4947413;28;20824;-67
2023/05/17 04:55:18;;;;;;;2.93;1.80;;;17.10;71.40;;;;;;4944646;28;20990;-67
2023/05/17 04:57:46;;;;;;;3.50;1.10;;;17.10;71.40;;;;;;4950490;28;20472;-67
2023/05/17 05:00:19;;;;;;;2.90;1.30;;;17.10;71.50;;;;;;4945378;28;20518;-67
2023/05/17 05:02:55;;;;;;;3.17;1.70;;;17.10;71.30;;;;;;4946735;28;20558;-67
2023/05/17 05:05:25;;;;;;;2.83;1.30;;;17.10;71.40;;;;;;4940811;28;20445;-66
2023/05/17 05:07:55;;;;;;;1.90;1.40;;;17.10;71.60;;;;;;4948740;28;20440;-68
2023/05/17 05:10:23;;;;;;;2.50;1.20;;;17.10;71.50;;;;;;4948227;28;20510;-67
2023/05/17 05:12:52;;;;;;;4.07;1.40;;;17.10;71.60;;;;;;4948040;28;20448;-68
2023/05/17 05:15:22;;;;;;;2.47;1.50;;;17.10;71.80;;;;;;4940116;28;20713;-66
2023/05/17 05:17:58;;;;;;;2.40;1.30;;;17.10;71.90;;;;;;4940943;28;20553;-68
2023/05/17 05:20:26;;;;;;;1.80;1.20;;;17.10;71.80;;;;;;4954695;28;20603;-67
2023/05/17 05:22:57;;;;;;;2.07;1.13;;;17.10;71.80;;;;;;4945359;28;20467;-68
2023/05/17 05:25:27;;;;;;;3.70;2.07;;;17.10;71.90;;;;;;4947324;28;20503;-66
2023/05/17 05:27:56;;;;;;;3.10;1.67;;;17.00;71.80;;;;;;4946816;28;20467;-66
2023/05/17 05:30:31;;;;;;;3.10;1.77;;;17.00;71.80;;;;;;4949056;29;20667;-67
2023/05/17 05:33:00;;;;;;;2.37;1.30;;;17.10;86.90;;;;;;4948161;28;20464;-67
2023/05/17 05:35:29;;;;;;;4.37;1.50;;;17.00;71.80;;;;;;4946776;28;20458;-67
2023/05/17 05:38:01;;;;;;;2.53;1.80;;;17.00;71.70;;;;;;4949357;28;20482;-67
2023/05/17 05:40:29;;;;;;;3.23;1.43;;;17.00;71.90;;;;;;4949246;28;20448;-65
2023/05/17 05:42:59;;;;;;;3.20;1.63;;;17.00;71.90;;;;;;4946561;28;20484;-66
2023/05/17 05:45:28;;;;;;;3.20;2.30;;;17.00;71.80;;;;;;4944375;28;20537;-66
2023/05/17 05:48:03;;;;;;;2.57;1.60;;;17.00;71.80;;;;;;4948138;28;20797;-66
2023/05/17 05:50:31;;;;;;;2.73;1.90;;;17.00;71.80;;;;;;4944425;29;20813;-66
2023/05/17 05:53:05;;;;;;;1.93;1.40;;;17.00;71.80;;;;;;4946748;28;20617;-66
2023/05/17 05:55:50;;;;;;;4.20;2.10;;;17.00;71.90;;;;;;4947158;28;20455;-67
2023/05/17 05:58:19;;;;;;;3.50;2.50;;;17.00;71.90;;;;;;4946412;28;20516;-66
2023/05/17 06:00:48;;;;;;;2.13;1.33;;;17.00;71.70;;;;;;4954131;28;20754;-66
2023/05/17 06:03:17;;;;;;;2.93;1.53;;;17.00;72.10;;;;;;4945874;28;20491;-67
2023/05/17 06:05:46;;;;;;;4.17;1.67;;;17.00;72.10;;;;;;4942824;29;20456;-66
2023/05/17 06:08:14;;;;;;;2.73;1.50;;;17.00;72.00;;;;;;4952083;28;20467;-67
2023/05/17 06:10:43;;;;;;;3.50;1.80;;;17.00;72.10;;;;;;4944527;28;20448;-67
2023/05/17 06:13:11;;;;;;;4.00;1.67;;;16.90;72.00;;;;;;4947316;28;20494;-65
2023/05/17 06:15:40;;;;;;;5.13;2.00;;;16.90;72.20;;;;;;4946467;28;20514;-66
2023/05/17 06:18:14;;;;;;;4.40;1.77;;;16.90;72.00;;;;;;4943968;28;20893;-66
2023/05/17 06:20:44;;;;;;;4.47;1.70;;;16.90;72.10;;;;;;4947223;28;20491;-65
2023/05/17 06:23:13;;;;;;;2.60;1.60;;;16.90;72.10;;;;;;4929645;28;20530;-65
2023/05/17 06:25:41;;;;;;;2.53;1.37;;;16.90;72.10;;;;;;4947777;28;20543;-68
2023/05/17 06:28:10;;;;;;;3.50;1.40;;;16.90;72.10;;;;;;4946876;29;20498;-65
2023/05/17 06:30:38;;;;;;;3.40;2.10;;;16.90;72.20;;;;;;4942041;28;20496;-67
2023/05/17 06:33:07;;;;;;;4.20;2.27;;;16.90;72.10;;;;;;4948067;28;20483;-65
2023/05/17 06:35:37;;;;;;;4.23;2.37;;;16.90;72.30;;;;;;4942449;28;20484;-67
2023/05/17 06:38:24;;;;;;;2.30;1.23;;;16.90;72.10;;;;;;4946343;28;21054;-65
2023/05/17 06:40:54;;;;;;;2.97;1.67;;;16.90;72.30;;;;;;4946946;28;20487;-66
2023/05/17 06:43:22;;;;;;;3.07;2.03;;;16.90;72.40;;;;;;4947192;28;21117;-67
2023/05/17 06:45:51;;;;;;;2.00;1.40;;;16.90;72.40;;;;;;4942802;28;20527;-67
2023/05/17 06:48:19;;;;;;;4.47;2.33;;;16.80;72.50;;;;;;4947620;28;21051;-65
2023/05/17 06:50:48;;;;;;;3.37;2.20;;;16.80;72.60;;;;;;4941087;28;20528;-66
2023/05/17 06:53:16;;;;;;;3.50;1.63;;;16.80;72.50;;;;;;4943546;28;20488;-66
2023/05/17 06:55:46;;;;;;;3.50;2.00;;;16.80;72.50;;;;;;4940301;28;20448;-66
2023/05/17 06:58:14;;;;;;;2.37;1.57;;;16.80;72.60;;;;;;4960672;28;20483;-66
2023/05/17 07:00:45;;;;;;;8.03;2.57;;;16.80;72.60;;;;;;4947322;29;20434;-67
2023/05/17 07:03:13;;;;;;;4.07;2.13;;;16.80;72.60;;;;;;4946215;28;21058;-66
2023/05/17 07:05:42;;;;;;;2.93;1.93;;;16.80;72.60;;;;;;4941711;28;20455;-68
2023/05/17 07:08:11;;;;;;;3.40;1.83;;;16.80;72.70;;;;;;4945782;28;20460;-67
2023/05/17 07:10:39;;;;;;;2.53;1.90;;;16.80;72.80;;;;;;4951031;28;20531;-67
2023/05/17 07:13:08;;;;;;;4.73;2.07;;;16.80;72.70;;;;;;4943987;28;20479;-68
2023/05/17 07:15:38;;;;;;;3.47;1.80;;;16.80;72.60;;;;;;4937578;29;20452;-67
2023/05/17 07:18:06;;;;;;;3.77;2.23;;;16.80;72.60;;;;;;4942792;29;20490;-66
2023/05/17 07:20:34;;;;;;;6.60;3.70;;;16.80;72.60;;;;;;4943150;28;20480;-66
2023/05/17 07:23:04;;;;;;;9.67;5.87;;;16.70;70.90;;;;;;4943970;28;20956;-67
2023/05/17 07:25:33;;;;;;;7.90;5.07;;;16.60;70.40;;;;;;4960557;28;20445;-68
2023/05/17 07:28:01;;;;;;;7.40;4.43;;;16.60;70.80;;;;;;4937298;29;20602;-66
2023/05/17 07:30:31;;;;;;;9.00;4.33;;;16.60;71.00;;;;;;4944869;28;20487;-67
2023/05/17 07:32:59;;;;;;;5.20;3.40;;;16.60;71.00;;;;;;4960730;28;20468;-66
2023/05/17 07:35:28;;;;;;;3.90;2.80;;;16.60;71.10;;;;;;4944502;28;20460;-66
2023/05/17 07:37:57;;;;;;;4.37;2.87;;;16.70;71.40;;;;;;4943914;28;20658;-67
2023/05/17 07:40:25;;;;;;;4.47;2.80;;;16.70;71.40;;;;;;4944210;28;20472;-68
2023/05/17 07:42:54;;;;;;;6.10;3.80;;;16.70;71.40;;;;;;4936525;28;20460;-67
2023/05/17 07:45:24;;;;;;;5.90;3.03;;;16.60;71.40;;;;;;4945969;28;20487;-68
2023/05/17 07:47:54;;;;;;;4.60;2.57;;;16.70;71.50;;;;;;4946661;28;20452;-67
2023/05/17 07:50:23;;;;;;;4.30;2.20;;;16.70;71.40;;;;;;4940633;28;20552;-66
2023/05/17 07:52:52;;;;;;;5.87;2.30;;;16.70;71.50;;;;;;4943520;28;20468;-65
2023/05/17 07:55:20;;;;;;;6.40;2.70;;;16.70;71.50;;;;;;4944905;28;20455;-67
2023/05/17 07:57:48;;;;;;;4.47;2.87;;;16.70;71.50;;;;;;4938554;28;20507;-67
2023/05/17 08:00:18;;;;;;;5.77;3.27;;;16.70;71.60;;;;;;4963030;28;20852;-66
2023/05/17 08:02:46;;;;;;;6.07;2.40;;;16.70;71.60;;;;;;4935959;28;20452;-68
2023/05/17 08:05:16;;;;;;;4.90;2.63;;;16.70;71.70;;;;;;4938771;29;20479;-66
2023/05/17 08:07:46;;;;;;;3.60;2.27;;;16.70;71.70;;;;;;4938900;29;20431;-66
2023/05/17 08:10:14;;;;;;;7.20;3.03;;;16.60;71.50;;;;;;4946748;29;20449;-68
2023/05/17 08:12:43;;;;;;;4.97;2.10;;;16.60;71.60;;;;;;4945694;28;20460;-66
2023/05/17 08:15:11;;;;;;;3.90;2.40;;;16.70;71.70;;;;;;4962119;28;20502;-66
2023/05/17 08:17:39;;;;;;;4.40;2.37;;;16.60;71.70;;;;;;4930658;28;20488;-67
2023/05/17 08:20:09;;;;;;;5.40;2.43;;;16.60;71.70;;;;;;4942226;28;20584;-67
2023/05/17 08:22:39;;;;;;;3.80;2.30;;;16.60;71.80;;;;;;4945611;29;20447;-67
2023/05/17 08:25:08;;;;;;;3.93;2.20;;;16.60;71.90;;;;;;4945661;28;20452;-68
2023/05/17 08:27:40;;;;;;;3.37;2.10;;;16.60;71.90;;;;;;4944371;28;20487;-67
2023/05/17 08:30:10;;;;;;;3.90;2.50;;;16.60;72.20;;;;;;4939310;28;20456;-67
2023/05/17 08:32:43;;;;;;;3.37;2.50;;;16.60;71.80;;;;;;4944021;28;21099;-68
2023/05/17 08:35:12;;;;;;;3.83;2.23;;;16.60;71.90;;;;;;4942426;28;20929;-67
2023/05/17 08:37:42;;;;;;;3.93;2.27;;;16.60;71.90;;;;;;4939723;28;21012;-68
2023/05/17 08:40:13;;;;;;;4.27;2.30;;;16.60;71.90;;;;;;4957026;28;20472;-66
2023/05/17 08:42:42;;;;;;;3.73;2.73;;;16.60;72.10;;;;;;4942841;28;20479;-66
2023/05/17 08:45:11;;;;;;;4.27;2.50;;;16.60;72.00;;;;;;4946779;28;20587;-66
2023/05/17 08:47:41;;;;;;;3.50;2.00;;;16.60;71.90;;;;;;4946840;28;20480;-66
2023/05/17 08:50:11;;;;;;;3.03;2.20;;;16.60;72.10;;;;;;4939260;28;20624;-65
2023/05/17 08:52:44;;;;;;;2.50;2.00;;;16.60;72.00;;;;;;4935080;28;20457;-66
2023/05/17 08:55:15;;;;;;;2.80;2.00;;;16.60;72.10;;;;;;4944453;28;20986;-66
2023/05/17 08:57:45;;;;;;;3.80;2.30;;;16.60;72.00;;;;;;4935036;28;20476;-67
2023/05/17 09:00:19;;;;;;;6.03;2.47;;;16.60;71.80;;;;;;4945102;29;20996;-68
2023/05/17 09:02:48;;;;;;;7.53;2.47;;;16.60;71.70;;;;;;4941543;29;20436;-67
2023/05/17 09:05:17;;;;;;;3.67;2.23;;;16.60;71.90;;;;;;4957565;28;20510;-66
2023/05/17 09:07:48;;;;;;;2.90;1.70;;;16.60;72.10;;;;;;4947606;29;20807;-66
2023/05/17 09:10:17;;;;;;;4.00;2.07;;;16.60;71.90;;;;;;4945776;29;20424;-65
2023/05/17 09:12:48;;;;;;;3.13;2.20;;;16.60;71.90;;;;;;4938757;29;20827;-67
2023/05/17 09:15:17;;;;;;;5.67;2.70;;;16.60;71.80;;;;;;4948717;28;20446;-67
2023/05/17 09:17:51;;;;;;;3.00;1.80;;;16.60;71.80;;;;;;4946176;28;20444;-67
2023/05/17 09:20:24;;;;;;;4.63;1.90;;;16.60;71.80;;;;;;4943965;29;20467;-66
2023/05/17 09:22:57;;;;;;;2.80;1.80;;;16.50;71.50;;;;;;4944103;28;20769;-67
2023/05/17 09:25:26;;;;;;;2.90;1.67;;;16.50;71.30;;;;;;4946278;29;20432;-65
2023/05/17 09:27:55;;;;;;;3.20;2.33;;;16.50;71.40;;;;;;4948639;29;20817;-68
2023/05/17 09:30:28;;;;;;;2.70;2.40;;;16.50;71.50;;;;;;4964849;28;20527;-67
2023/05/17 09:32:57;;;;;;;3.00;2.20;;;16.50;71.60;;;;;;4940498;28;20862;-68
2023/05/17 09:35:29;;;;;;;2.53;1.53;;;16.50;71.40;;;;;;4947197;28;20460;-66
2023/05/17 09:38:06;;;;;;;3.40;1.83;;;16.50;71.40;;;;;;4947409;28;20451;-67
2023/05/17 09:40:39;;;;;;;3.17;2.00;;;16.50;71.30;;;;;;4947850;28;20498;-67
2023/05/17 09:43:08;;;;;;;4.00;2.20;;;16.50;71.50;;;;;;4942189;28;20476;-67
2023/05/17 09:45:37;;;;;;;3.90;2.10;;;16.50;71.30;;;;;;4964019;28;20456;-67
2023/05/17 09:48:13;;;;;;;4.33;2.33;;;16.50;71.20;;;;;;4953359;28;20546;-66
2023/05/17 09:50:46;;;;;;;5.50;2.20;;;16.50;71.40;;;;;;4946049;28;20452;-66
2023/05/17 09:53:29;;;;;;;3.80;1.93;;;16.50;71.50;;;;;;4942020;28;20483;-65
2023/05/17 09:56:00;;;;;;;2.60;1.97;;;16.50;71.40;;;;;;4940784;28;20448;-67
2023/05/17 09:58:31;;;;;;;4.10;2.40;;;16.50;71.50;;;;;;4944718;28;20522;-66
2023/05/17 10:01:02;;;;;;;4.97;2.43;;;16.50;71.40;;;;;;4957894;28;20468;-67
2023/05/17 10:03:32;;;;;;;3.50;1.83;;;16.50;71.50;;;;;;4960101;28;20921;-66
2023/05/17 10:06:04;;;;;;;3.70;2.00;;;16.50;71.30;;;;;;4928915;29;20585;-66
2023/05/17 10:08:35;;;;;;;4.90;2.00;;;16.50;71.30;;;;;;4957586;28;20583;-68
2023/05/17 10:11:08;;;;;;;4.67;2.40;;;16.50;71.30;;;;;;4948286;29;20435;-66
2023/05/17 10:13:42;;;;;;;4.93;2.07;;;16.50;71.10;;;;;;4940129;28;20493;-67
2023/05/17 10:16:12;;;;;;;5.77;2.60;;;16.50;70.50;;;;;;4952406;28;20455;-67
2023/05/17 10:18:41;;;;;;;3.20;2.00;;;16.50;71.10;;;;;;4947185;28;20483;-68
2023/05/17 10:21:11;;;;;;;3.33;2.20;;;16.50;71.20;;;;;;4953766;28;20849;-67
2023/05/17 10:23:43;;;;;;;4.53;2.17;;;16.50;71.20;;;;;;4926479;29;20568;-66
2023/05/17 10:26:12;;;;;;;4.73;1.70;;;16.50;71.30;;;;;;4940728;28;20949;-67
2023/05/17 10:28:42;;;;;;;5.20;2.30;;;16.40;70.90;;;;;;4945736;28;20486;-66
2023/05/17 10:31:11;;;;;;;3.97;1.97;;;16.50;71.20;;;;;;4948410;28;20499;-67
2023/05/17 10:33:41;;;;;;;3.60;1.80;;;16.50;71.40;;;;;;4946375;28;20475;-67
2023/05/17 10:36:13;;;;;;;4.50;2.20;;;16.40;71.00;;;;;;4939498;28;20549;-68
2023/05/17 10:38:43;;;;;;;4.27;1.70;;;16.50;71.00;;;;;;4946984;28;20483;-66
2023/05/17 10:41:14;;;;;;;3.63;1.90;;;16.40;71.50;;;;;;4942871;28;20472;-67
2023/05/17 10:43:43;;;;;;;2.70;1.83;;;16.50;71.10;;;;;;4945430;28;20475;-67
2023/05/17 10:46:15;;;;;;;3.50;2.00;;;16.40;71.00;;;;;;4946429;28;20460;-66
2023/05/17 10:48:44;;;;;;;3.80;2.03;;;16.50;71.40;;;;;;4946989;28;20467;-67
2023/05/17 10:51:13;;;;;;;3.37;1.83;;;16.40;70.90;;;;;;4945909;28;20456;-65
2023/05/17 10:54:05;;;;;;;3.30;1.87;;;16.40;70.80;;;;;;4945988;28;20506;-67
2023/05/17 10:56:34;;;;;;;3.27;1.63;;;16.50;70.70;;;;;;4947118;28;20451;-67
2023/05/17 10:59:20;;;;;;;6.17;2.57;;;16.40;71.40;;;;;;4941886;28;20987;-66
2023/05/17 11:01:54;;;;;;;4.50;2.43;;;16.50;71.30;;;;;;4963054;28;20478;-67
2023/05/17 11:04:24;;;;;;;3.03;2.10;;;16.40;67.70;;;;;;4943583;28;20488;-67
2023/05/17 11:06:56;;;;;;;5.30;1.90;;;16.40;69.20;;;;;;4942727;29;20440;-68
2023/05/17 11:09:26;;;;;;;3.30;1.63;;;16.40;69.30;;;;;;4947341;28;20494;-65
2023/05/17 11:12:15;;;;;;;3.43;1.80;;;16.40;70.30;;;;;;4940687;29;20436;-66
2023/05/17 11:14:47;;;;;;;5.70;2.30;;;16.40;69.80;;;;;;4960409;28;20490;-67
2023/05/17 11:17:17;;;;;;;3.77;2.07;;;16.40;70.00;;;;;;4947772;29;20439;-66
2023/05/17 11:20:09;;;;;;;5.70;2.23;;;16.40;69.50;;;;;;4942124;29;20448;-66
2023/05/17 11:22:43;;;;;;;5.40;1.93;;;16.40;70.30;;;;;;4947480;28;20483;-65
2023/05/17 11:25:14;;;;;;;2.03;1.67;;;16.40;70.20;;;;;;4947486;29;20968;-65
2023/05/17 11:27:45;;;;;;;3.13;1.97;;;16.40;70.40;;;;;;4946590;29;20448;-66
2023/05/17 11:30:19;;;;;;;4.50;2.40;;;16.40;70.10;;;;;;4942680;29;20436;-67
2023/05/17 11:32:50;;;;;;;4.33;2.20;;;16.40;69.80;;;;;;4946165;28;21027;-66
2023/05/17 11:35:19;;;;;;;4.13;1.97;;;16.40;70.30;;;;;;4941721;29;20459;-66
2023/05/17 11:37:52;;;;;;;3.23;1.90;;;16.40;70.30;;;;;;4946931;28;20447;-67
2023/05/17 11:40:28;;;;;;;4.83;2.37;;;16.40;70.50;;;;;;4947318;29;20672;-67
2023/05/17 11:43:11;;;;;;;5.43;2.63;;;16.40;70.50;;;;;;4953898;28;21185;-67
2023/05/17 11:45:43;;;;;;;3.63;2.27;;;16.40;70.40;;;;;;4952344;28;20442;-67
2023/05/17 11:48:12;;;;;;;3.40;1.77;;;16.40;70.50;;;;;;4946762;29;20455;-68
2023/05/17 11:50:42;;;;;;;5.53;2.00;;;16.40;70.40;;;;;;4942544;29;20819;-67
2023/05/17 11:53:10;;;;;;;3.77;2.00;;;16.40;70.10;;;;;;4946644;29;20460;-68
2023/05/17 11:55:42;;;;;;;4.57;1.93;;;16.40;70.40;;;;;;4946793;29;20440;-65
2023/05/17 11:58:12;;;;;;;7.23;2.07;;;16.40;70.40;;;;;;4942383;28;20733;-71
2023/05/17 12:00:41;;;;;;;7.17;1.73;;;16.40;70.50;;;;;;4941652;28;20974;-72
2023/05/17 12:03:21;;;;;;;5.63;2.33;;;16.50;69.40;;;;;;4941841;28;20570;-72
2023/05/17 12:05:51;;;;;;;5.10;2.63;;;16.60;66.30;;;;;;4939978;28;20361;-71
2023/05/17 12:08:21;;;;;;;4.77;2.40;;;16.70;65.00;;;;;;4945498;28;20673;-72
2023/05/17 12:10:52;;;;;;;6.30;2.50;;;16.70;63.70;;;;;;4942702;28;20518;-71
2023/05/17 12:13:21;;;;;;;4.07;2.13;;;16.80;63.80;;;;;;4945236;29;20460;-72
2023/05/17 12:15:54;;;;;;;5.40;2.20;;;16.80;63.60;;;;;;4939530;28;20458;-71
2023/05/17 12:18:23;;;;;;;6.13;2.27;;;16.90;63.90;;;;;;4946186;29;20472;-72
2023/05/17 12:20:56;;;;;;;6.83;2.60;;;16.90;63.60;;;;;;4942162;28;20470;-72
2023/05/17 12:23:32;;;;;;;7.30;3.10;;;16.90;63.60;;;;;;4944760;28;20875;-71
2023/05/17 12:26:07;;;;;;;5.27;2.53;;;17.00;63.10;;;;;;4944957;28;20991;-72
2023/05/17 12:28:38;;;;;;;4.47;2.47;;;17.00;62.50;;;;;;4941185;28;20543;-72
2023/05/17 12:31:11;;;;;;;6.13;2.50;;;17.00;62.80;;;;;;4941178;29;20463;-72
2023/05/17 12:33:42;;;;;;;7.70;2.57;;;17.00;63.00;;;;;;4944490;28;21000;-72
2023/05/17 12:36:12;;;;;;;9.83;2.50;;;17.10;63.00;;;;;;4941399;29;20462;-72
2023/05/17 12:38:42;;;;;;;9.13;2.50;;;17.00;62.30;;;;;;4942330;28;20481;-72
2023/05/17 12:41:13;;;;;;;5.67;2.37;;;17.10;62.00;;;;;;4943690;29;20448;-72
2023/05/17 12:43:44;;;;;;;3.20;1.60;;;17.10;61.00;;;;;;4938128;28;20916;-72
2023/05/17 12:46:17;;;;;;;3.20;2.00;;;17.10;61.10;;;;;;4944367;29;20479;-72
2023/05/17 12:48:46;;;;;;;5.07;3.03;;;17.00;61.00;;;;;;4945753;28;20466;-72
2023/05/17 12:51:17;;;;;;;5.17;2.23;;;17.10;61.10;;;;;;4945283;28;20460;-71
2023/05/17 12:53:50;;;;;;;4.17;2.60;;;17.10;61.10;;;;;;4948233;28;20487;-72
2023/05/17 12:56:21;;;;;;;6.53;1.90;;;17.10;61.00;;;;;;4946891;29;20459;-72
2023/05/17 12:59:07;;;;;;;5.27;2.40;;;17.10;61.00;;;;;;4949005;28;20472;-71
2023/05/17 13:01:36;;;;;;;7.40;2.50;;;17.10;59.80;;;;;;4947785;29;20479;-72
2023/05/17 13:04:04;;;;;;;6.63;1.93;;;17.10;61.00;;;;;;4945006;28;20506;-72
2023/05/17 13:06:44;;;;;;;5.60;2.33;;;17.10;61.00;;;;;;4962137;28;20460;-72